Time;durP1;ratioP1;P1;durP2;ratioP2;P2;SDS_P1;SDS_P2;PMS_P1;PMS_P2;Temp;Humidity;BMP_temperature;BMP_pressure;BME280_temperature;BME280_humidity;BME280_pressure;Samples;Min_cycle;Max_cycle;Signal;HPM_P1;HPM_P2
2022/07/12 00:02:08;;;;;;;1999.90;999.90;;;17.30;99.90;;;;;;5106559;28;20486;-70
2022/07/12 00:04:34;;;;;;;1999.90;999.90;;;17.30;99.90;;;;;;5108714;28;20959;-72
2022/07/12 00:07:01;;;;;;;1999.90;999.90;;;17.30;99.90;;;;;;5105207;28;20492;-71
2022/07/12 00:09:27;;;;;;;1999.90;999.90;;;17.20;99.90;;;;;;5108025;28;20466;-69
2022/07/12 00:11:55;;;;;;;1999.90;999.90;;;17.20;99.90;;;;;;5113265;28;20532;-70
2022/07/12 00:14:21;;;;;;;1999.90;999.90;;;17.20;99.90;;;;;;5113398;28;20493;-70
2022/07/12 00:16:48;;;;;;;1999.90;999.90;;;17.20;99.90;;;;;;5112403;28;20508;-70
2022/07/12 00:19:16;;;;;;;1999.90;999.90;;;17.10;99.90;;;;;;5109101;28;20456;-68
2022/07/12 00:21:42;;;;;;;1999.90;999.90;;;17.10;99.90;;;;;;5108291;28;20513;-68
2022/07/12 00:24:09;;;;;;;1999.90;999.90;;;17.00;99.90;;;;;;5108149;28;22211;-68
2022/07/12 00:26:36;;;;;;;1999.90;999.90;;;17.00;99.90;;;;;;5108054;28;20475;-68
2022/07/12 00:29:02;;;;;;;1999.90;999.90;;;17.00;99.90;;;;;;5106474;28;20520;-70
2022/07/12 00:31:29;;;;;;;1999.90;999.90;;;17.00;99.90;;;;;;5108317;28;20467;-68
2022/07/12 00:33:56;;;;;;;1999.90;999.90;;;17.00;99.90;;;;;;5106222;28;20533;-69
2022/07/12 00:36:23;;;;;;;1999.90;999.90;;;16.90;99.90;;;;;;5104199;28;20491;-69
2022/07/12 00:38:50;;;;;;;1999.90;999.90;;;16.90;99.90;;;;;;5101715;28;20525;-68
2022/07/12 00:41:17;;;;;;;1999.90;999.90;;;17.00;99.90;;;;;;5107770;28;20456;-69
2022/07/12 00:43:43;;;;;;;1999.90;999.90;;;17.00;99.90;;;;;;5105191;28;20897;-70
2022/07/12 00:46:10;;;;;;;1999.90;999.90;;;17.00;99.90;;;;;;5104072;28;20519;-69
2022/07/12 00:48:38;;;;;;;1999.90;999.90;;;17.00;99.90;;;;;;5095946;28;20832;-69
2022/07/12 00:51:05;;;;;;;1999.90;999.90;;;17.00;99.90;;;;;;5102083;28;20537;-68
2022/07/12 00:53:33;;;;;;;1999.90;999.90;;;17.00;99.90;;;;;;5103934;28;20951;-72
2022/07/12 00:56:00;;;;;;;1999.90;999.90;;;16.90;99.90;;;;;;5104791;28;21161;-69
2022/07/12 00:58:27;;;;;;;1999.90;999.90;;;16.70;99.90;;;;;;5095960;28;20451;-70
2022/07/12 01:00:56;;;;;;;1999.90;999.90;;;16.70;99.90;;;;;;5106985;28;20553;-70
2022/07/12 01:03:23;;;;;;;1999.90;999.90;;;16.70;99.90;;;;;;5106781;28;20541;-70
2022/07/12 01:05:50;;;;;;;1999.90;999.90;;;16.70;99.90;;;;;;5108095;28;20479;-71
2022/07/12 01:08:17;;;;;;;1999.90;999.90;;;16.60;99.90;;;;;;5100147;28;20948;-69
2022/07/12 01:10:46;;;;;;;1999.90;999.90;;;16.60;99.90;;;;;;5103830;28;20811;-69
2022/07/12 01:13:12;;;;;;;1999.90;999.90;;;16.60;99.90;;;;;;5105504;28;20556;-68
2022/07/12 01:15:40;;;;;;;1999.90;999.90;;;16.50;99.90;;;;;;5102948;28;20584;-69
2022/07/12 01:18:07;;;;;;;1999.90;999.90;;;16.30;99.90;;;;;;5100795;28;20460;-68
2022/07/12 01:20:34;;;;;;;1999.90;999.90;;;16.20;99.90;;;;;;5107411;28;20456;-69
2022/07/12 01:23:02;;;;;;;1999.90;999.90;;;16.20;99.90;;;;;;5106878;28;20509;-69
2022/07/12 01:25:29;;;;;;;1999.90;999.90;;;16.10;99.90;;;;;;5104821;28;20479;-69
2022/07/12 01:27:56;;;;;;;1999.90;999.90;;;16.00;99.90;;;;;;5101911;28;20468;-68
2022/07/12 01:30:23;;;;;;;1999.90;999.90;;;16.00;99.90;;;;;;5101945;28;20538;-69
2022/07/12 01:32:50;;;;;;;1999.90;999.90;;;16.10;99.90;;;;;;5106661;28;20487;-68
2022/07/12 01:35:17;;;;;;;1999.90;999.90;;;16.10;99.90;;;;;;5107962;28;20506;-69
2022/07/12 01:37:44;;;;;;;1999.90;999.90;;;16.20;99.90;;;;;;5102752;28;20541;-69
2022/07/12 01:40:14;;;;;;;1999.90;999.90;;;16.20;99.90;;;;;;5099592;28;20455;-68
2022/07/12 01:42:41;;;;;;;1999.90;999.90;;;16.20;99.90;;;;;;5105956;28;20873;-68
2022/07/12 01:45:09;;;;;;;1999.90;999.90;;;16.10;99.90;;;;;;5104825;28;20467;-68
2022/07/12 01:47:36;;;;;;;1999.90;999.90;;;16.00;99.90;;;;;;5104470;28;20492;-69
2022/07/12 01:50:06;;;;;;;1999.90;999.90;;;16.10;99.90;;;;;;5098927;28;20491;-68
2022/07/12 01:52:33;;;;;;;1999.90;999.90;;;16.10;99.90;;;;;;5107012;28;20475;-68
2022/07/12 01:55:00;;;;;;;1999.90;999.90;;;16.10;99.90;;;;;;5106802;28;20463;-68
2022/07/12 01:57:28;;;;;;;1999.90;999.90;;;16.00;99.90;;;;;;5104333;28;20460;-68
2022/07/12 01:59:56;;;;;;;1999.90;999.90;;;15.90;99.90;;;;;;5102543;28;20464;-68
2022/07/12 02:02:24;;;;;;;1999.90;999.90;;;15.80;99.90;;;;;;5105261;28;20507;-68
2022/07/12 02:04:50;;;;;;;1999.90;999.90;;;15.80;99.90;;;;;;5107549;28;20468;-68
2022/07/12 02:07:17;;;;;;;1999.90;999.90;;;15.80;99.90;;;;;;5106643;28;20557;-68
2022/07/12 02:09:44;;;;;;;1999.90;999.90;;;15.80;99.90;;;;;;5101899;28;20951;-69
2022/07/12 02:12:10;;;;;;;1999.90;999.90;;;15.80;99.90;;;;;;5109359;28;20487;-69
2022/07/12 02:14:38;;;;;;;1999.90;999.90;;;15.80;99.90;;;;;;5111436;28;20512;-69
2022/07/12 02:17:05;;;;;;;1999.90;999.90;;;15.70;99.90;;;;;;5108375;28;20460;-70
2022/07/12 02:19:32;;;;;;;1999.90;999.90;;;15.60;99.90;;;;;;5101757;28;20513;-69
2022/07/12 02:21:58;;;;;;;1999.90;999.90;;;15.50;99.90;;;;;;5102202;28;20489;-68
2022/07/12 02:24:25;;;;;;;1999.90;999.90;;;15.40;99.90;;;;;;5109430;28;20456;-69
2022/07/12 02:26:51;;;;;;;1999.90;999.90;;;15.50;99.90;;;;;;5107816;28;20993;-68
2022/07/12 02:29:18;;;;;;;1999.90;999.90;;;15.40;99.90;;;;;;5097641;28;21126;-69
2022/07/12 02:31:46;;;;;;;1999.90;999.90;;;15.30;99.90;;;;;;5106123;28;20513;-69
2022/07/12 02:34:13;;;;;;;1999.90;999.90;;;15.30;99.90;;;;;;5109252;27;20512;-69
2022/07/12 02:36:39;;;;;;;1999.90;999.90;;;15.20;99.90;;;;;;5108535;28;20459;-68
2022/07/12 02:39:06;;;;;;;1999.90;999.90;;;15.20;99.90;;;;;;5099275;28;20975;-69
2022/07/12 02:41:33;;;;;;;1999.90;999.90;;;15.10;99.90;;;;;;5109240;28;20512;-69
2022/07/12 02:44:00;;;;;;;1999.90;999.90;;;15.10;99.90;;;;;;5110283;28;20495;-69
2022/07/12 02:46:26;;;;;;;1999.90;999.90;;;15.10;99.90;;;;;;5108856;28;20479;-69
2022/07/12 02:48:54;;;;;;;1999.90;999.90;;;15.10;99.90;;;;;;5096396;28;20468;-69
2022/07/12 02:51:21;;;;;;;1999.90;999.90;;;15.10;99.90;;;;;;5105108;28;20459;-69
2022/07/12 02:53:48;;;;;;;1999.90;999.90;;;15.10;99.90;;;;;;5109216;28;21044;-69
2022/07/12 02:56:14;;;;;;;1999.90;999.90;;;15.00;99.90;;;;;;5108043;28;20512;-69
2022/07/12 02:58:41;;;;;;;1999.90;999.90;;;15.00;99.90;;;;;;5105505;28;20528;-70
2022/07/12 03:01:08;;;;;;;1999.90;999.90;;;15.00;99.90;;;;;;5101549;28;20455;-70
2022/07/12 03:03:34;;;;;;;1999.90;999.90;;;15.00;99.90;;;;;;5110454;27;20475;-68
2022/07/12 03:06:03;;;;;;;1999.90;999.90;;;15.00;99.90;;;;;;5107544;28;20483;-67
2022/07/12 03:08:29;;;;;;;1999.90;999.90;;;14.90;99.90;;;;;;5102575;28;20456;-70
2022/07/12 03:10:56;;;;;;;1999.90;999.90;;;14.70;99.90;;;;;;5104775;27;20459;-70
2022/07/12 03:13:23;;;;;;;1999.90;999.90;;;14.70;99.90;;;;;;5095452;28;20492;-69
2022/07/12 03:15:50;;;;;;;1999.90;999.90;;;14.70;99.90;;;;;;5103677;28;20490;-67
2022/07/12 03:18:17;;;;;;;1999.90;999.90;;;14.70;99.90;;;;;;5105380;28;20455;-70
2022/07/12 03:20:44;;;;;;;1999.90;999.90;;;14.70;99.90;;;;;;5105672;28;20510;-69
2022/07/12 03:23:11;;;;;;;1999.90;999.90;;;14.60;99.90;;;;;;5099543;28;20540;-67
2022/07/12 03:25:38;;;;;;;1999.90;999.90;;;14.50;99.90;;;;;;5103356;28;20468;-68
2022/07/12 03:28:05;;;;;;;1999.90;999.90;;;14.50;99.90;;;;;;5103904;28;20513;-68
2022/07/12 03:30:31;;;;;;;1999.90;999.90;;;14.60;99.90;;;;;;5105192;28;20505;-68
2022/07/12 03:32:58;;;;;;;1999.90;999.90;;;14.70;99.90;;;;;;5099690;28;20541;-69
2022/07/12 03:35:25;;;;;;;1999.90;999.90;;;14.60;99.90;;;;;;5098347;28;20460;-68
2022/07/12 03:37:53;;;;;;;1999.90;999.90;;;14.60;99.90;;;;;;5107391;28;20840;-69
2022/07/12 03:40:21;;;;;;;1999.90;999.90;;;14.60;99.90;;;;;;5104645;28;20509;-69
2022/07/12 03:42:49;;;;;;;1999.90;999.90;;;14.60;99.90;;;;;;5097354;28;20534;-70
2022/07/12 03:45:15;;;;;;;1999.90;999.90;;;14.70;99.90;;;;;;5100212;28;20486;-70
2022/07/12 03:47:42;;;;;;;1999.90;999.90;;;14.80;99.90;;;;;;5106831;28;20912;-69
2022/07/12 03:50:12;;;;;;;1999.90;999.90;;;14.80;99.90;;;;;;5102545;28;20464;-68
2022/07/12 03:52:38;;;;;;;1999.90;999.90;;;14.90;99.90;;;;;;5097475;28;20515;-72
2022/07/12 03:55:06;;;;;;;1999.90;999.90;;;15.00;99.90;;;;;;5096539;28;20517;-69
2022/07/12 03:57:34;;;;;;;1999.90;999.90;;;15.00;99.90;;;;;;5101542;28;21385;-70
2022/07/12 04:00:01;;;;;;;1999.90;999.90;;;15.00;99.90;;;;;;5103020;28;21013;-69
2022/07/12 04:02:27;;;;;;;1999.90;999.90;;;15.10;99.90;;;;;;5102682;28;20480;-69
2022/07/12 04:04:54;;;;;;;1999.90;999.90;;;15.10;99.90;;;;;;5099442;28;20456;-68
2022/07/12 04:07:21;;;;;;;1999.90;999.90;;;15.10;99.90;;;;;;5100454;28;20484;-69
2022/07/12 04:09:48;;;;;;;1999.90;999.90;;;15.00;99.90;;;;;;5100129;28;20894;-69
2022/07/12 04:12:14;;;;;;;1999.90;999.90;;;15.10;99.90;;;;;;5100643;28;20499;-68
2022/07/12 04:14:42;;;;;;;1999.90;999.90;;;15.20;99.90;;;;;;5104422;28;20467;-68
2022/07/12 04:17:09;;;;;;;1999.90;999.90;;;15.20;99.90;;;;;;5106868;27;20456;-68
2022/07/12 04:19:35;;;;;;;1999.90;999.90;;;15.30;99.90;;;;;;5104481;28;20460;-69
2022/07/12 04:22:02;;;;;;;1999.90;999.90;;;15.30;99.90;;;;;;5099809;28;20504;-70
2022/07/12 04:24:29;;;;;;;1999.90;999.90;;;15.30;99.90;;;;;;5098164;28;20505;-69
2022/07/12 04:26:55;;;;;;;1999.90;999.90;;;15.40;99.90;;;;;;5099047;28;20536;-68
2022/07/12 04:29:22;;;;;;;1999.90;999.90;;;15.40;99.90;;;;;;5105463;27;20463;-68
2022/07/12 04:31:50;;;;;;;1999.90;999.90;;;15.60;99.90;;;;;;5103701;28;20463;-69
2022/07/12 04:34:17;;;;;;;1999.90;999.90;;;15.70;99.90;;;;;;5104548;28;20457;-69
2022/07/12 04:36:44;;;;;;;1999.90;999.90;;;16.00;99.90;;;;;;5101750;28;20986;-69
2022/07/12 04:39:12;;;;;;;1999.90;999.90;;;16.20;99.90;;;;;;5106019;28;20459;-70
2022/07/12 04:41:38;;;;;;;1999.90;999.90;;;16.60;99.90;;;;;;5103981;28;20962;-70
2022/07/12 04:44:05;;;;;;;1999.90;999.90;;;16.90;99.90;;;;;;5099466;28;20510;-70
2022/07/12 04:46:32;;;;;;;1999.90;999.90;;;17.30;99.90;;;;;;5098306;28;20623;-70
2022/07/12 04:49:00;;;;;;;1999.90;999.90;;;17.60;99.90;;;;;;5102070;28;20455;-69
2022/07/12 04:51:27;;;;;;;1999.90;999.90;;;17.60;99.90;;;;;;5105195;28;21218;-68
2022/07/12 04:53:54;;;;;;;1999.90;999.90;;;17.70;99.90;;;;;;5096933;28;20484;-70
2022/07/12 04:56:21;;;;;;;1999.90;999.90;;;17.70;99.90;;;;;;5102373;28;21045;-68
2022/07/12 04:58:48;;;;;;;1999.90;999.90;;;17.70;99.90;;;;;;5112824;28;20508;-69
2022/07/12 05:01:15;;;;;;;1999.90;999.90;;;17.40;99.90;;;;;;5121154;28;20459;-69
2022/07/12 05:03:41;;;;;;;1999.90;999.90;;;17.00;99.90;;;;;;5114567;28;20541;-69
2022/07/12 05:06:09;;;;;;;1999.90;999.90;;;16.80;99.90;;;;;;5119987;28;20489;-69
2022/07/12 05:08:36;;;;;;;1999.90;999.90;;;16.60;99.90;;;;;;5109498;28;20509;-69
2022/07/12 05:11:02;;;;;;;1999.90;999.90;;;16.40;99.90;;;;;;5107569;28;20507;-69
2022/07/12 05:13:29;;;;;;;1999.90;999.90;;;16.50;99.90;;;;;;5101314;22;20506;-73
2022/07/12 05:15:56;;;;;;;1999.90;999.90;;;16.40;99.90;;;;;;5050694;28;20462;-73
2022/07/12 05:18:22;;;;;;;1999.90;999.90;;;16.60;99.90;;;;;;5047828;28;20523;-73
2022/07/12 05:20:49;;;;;;;1999.90;999.90;;;16.80;99.90;;;;;;5056099;28;21030;-73
2022/07/12 05:23:17;;;;;;;1999.90;999.90;;;16.90;99.90;;;;;;5062144;28;20462;-73
2022/07/12 05:25:43;;;;;;;1999.90;999.90;;;17.20;99.90;;;;;;5052258;28;20458;-73
2022/07/12 05:28:11;;;;;;;1999.90;999.90;;;17.30;99.90;;;;;;5047522;28;20982;-73
2022/07/12 05:30:37;;;;;;;1999.90;999.90;;;17.80;99.90;;;;;;5049647;28;20957;-73
2022/07/12 05:33:04;;;;;;;1999.90;999.90;;;18.10;99.90;;;;;;5050117;28;20524;-73
2022/07/12 05:35:31;;;;;;;1999.90;999.90;;;18.10;99.90;;;;;;5053630;28;20516;-71
2022/07/12 05:37:57;;;;;;;1999.90;999.90;;;18.20;99.90;;;;;;5052823;28;20966;-73
2022/07/12 05:40:25;;;;;;;1999.90;999.90;;;18.00;99.90;;;;;;5047035;28;20454;-73
2022/07/12 05:42:52;;;;;;;1999.90;999.90;;;17.90;99.90;;;;;;5049944;28;20462;-73
2022/07/12 05:45:18;;;;;;;1999.90;999.90;;;17.80;99.90;;;;;;5049432;28;21003;-73
2022/07/12 05:47:45;;;;;;;1999.90;999.90;;;17.70;99.90;;;;;;5052586;28;20474;-74
2022/07/12 05:50:11;;;;;;;1999.90;999.90;;;17.60;99.90;;;;;;5048237;28;20962;-71
2022/07/12 05:55:22;;;;;;;1999.90;999.90;;;17.50;99.90;;;;;;5048537;28;20449;-74
2022/07/12 05:57:51;;;;;;;1999.90;999.90;;;17.60;99.90;;;;;;5048197;28;20466;-74
2022/07/12 06:00:17;;;;;;;1999.90;999.90;;;17.70;99.90;;;;;;5047315;28;20511;-74
2022/07/12 06:02:44;;;;;;;1999.90;999.90;;;17.80;99.90;;;;;;5049940;28;20488;-72
2022/07/12 06:05:11;;;;;;;1999.90;999.90;;;17.90;99.90;;;;;;5048471;28;20486;-74
2022/07/12 06:07:37;;;;;;;1999.90;999.90;;;17.90;99.90;;;;;;5046105;28;20909;-74
2022/07/12 06:10:04;;;;;;;1999.90;999.90;;;17.90;99.90;;;;;;5048645;28;20462;-73
2022/07/12 06:12:31;;;;;;;1999.90;999.90;;;18.10;99.90;;;;;;5048758;28;21043;-71
2022/07/12 06:14:59;;;;;;;1999.90;999.90;;;18.20;99.90;;;;;;5043033;28;20547;-73
2022/07/12 06:17:25;;;;;;;1999.90;999.90;;;18.20;99.90;;;;;;5050114;28;20454;-73
2022/07/12 06:19:52;;;;;;;1999.90;999.90;;;18.20;99.90;;;;;;5046085;28;20894;-74
2022/07/12 06:22:21;;;;;;;1999.90;999.90;;;18.20;99.90;;;;;;5048484;28;20545;-72
2022/07/12 06:24:47;;;;;;;1999.90;999.90;;;18.20;99.90;;;;;;5048806;28;21024;-73
2022/07/12 06:27:14;;;;;;;1999.90;999.90;;;18.30;99.90;;;;;;5049900;28;20482;-74
2022/07/12 06:29:40;;;;;;;1999.90;999.90;;;18.50;99.90;;;;;;5046573;28;20470;-75
2022/07/12 06:32:09;;;;;;;1999.90;999.90;;;18.70;99.90;;;;;;5045389;28;20553;-75
2022/07/12 06:34:37;;;;;;;1999.90;999.90;;;18.70;99.90;;;;;;5047717;28;20482;-73
2022/07/12 06:37:07;;;;;;;1999.90;999.90;;;18.60;99.90;;;;;;5052875;28;20462;-73
2022/07/12 06:39:34;;;;;;;1999.90;999.90;;;18.40;99.90;;;;;;5046648;28;20969;-73
2022/07/12 06:42:03;;;;;;;1999.90;999.90;;;18.20;99.90;;;;;;5047297;28;20458;-73
2022/07/12 06:44:30;;;;;;;1999.90;999.90;;;18.10;99.90;;;;;;5047430;28;20506;-74
2022/07/12 06:46:56;;;;;;;1999.90;999.90;;;18.00;99.90;;;;;;5051751;28;20478;-74
2022/07/12 06:49:24;;;;;;;1999.90;999.90;;;18.20;99.90;;;;;;5046034;28;20467;-73
2022/07/12 06:51:51;;;;;;;1999.90;999.90;;;18.10;99.90;;;;;;5047566;28;21032;-74
2022/07/12 06:54:18;;;;;;;1999.90;999.90;;;18.10;99.90;;;;;;5050757;28;20527;-70
2022/07/12 06:56:44;;;;;;;1999.90;999.90;;;18.50;99.90;;;;;;5050811;28;20462;-73
2022/07/12 06:59:11;;;;;;;1999.90;999.90;;;18.60;99.90;;;;;;5052938;28;20493;-71
2022/07/12 07:01:37;;;;;;;1999.90;999.90;;;18.50;99.90;;;;;;5051227;28;21000;-73
2022/07/12 07:04:04;;;;;;;1999.90;999.90;;;19.20;99.90;;;;;;5051684;28;20536;-71
2022/07/12 07:06:32;;;;;;;1999.90;999.90;;;19.70;99.90;;;;;;5052471;28;20556;-73
2022/07/12 07:08:59;;;;;;;1999.90;999.90;;;19.80;99.90;;;;;;5052514;28;20633;-74
2022/07/12 07:11:25;;;;;;;1999.90;999.90;;;19.90;99.90;;;;;;5050742;28;20458;-74
2022/07/12 07:13:53;;;;;;;1999.90;999.90;;;19.90;99.90;;;;;;5047441;28;20490;-73
2022/07/12 07:16:22;;;;;;;1999.90;999.90;;;19.80;99.90;;;;;;5053392;28;21001;-73
2022/07/12 07:18:48;;;;;;;1999.90;999.90;;;20.00;99.90;;;;;;5057541;28;20487;-73
2022/07/12 07:21:15;;;;;;;1999.90;999.90;;;20.00;99.90;;;;;;5052095;28;20462;-73
2022/07/12 07:23:43;;;;;;;1999.90;999.90;;;20.00;99.90;;;;;;5051398;28;20539;-75
2022/07/12 07:26:09;;;;;;;1999.90;999.90;;;20.10;99.90;;;;;;5051363;28;20460;-71
2022/07/12 07:30:51;;;;;;;1999.90;999.90;;;19.90;99.90;;;;;;5052783;28;20864;-72
2022/07/12 07:31:22;;;;;;;1999.90;999.90;;;19.90;99.90;;;;;;5053170;28;20482;-71
2022/07/12 07:33:48;;;;;;;1999.90;999.90;;;20.20;99.90;;;;;;5051906;28;20505;-72
2022/07/12 07:36:15;;;;;;;1999.90;999.90;;;20.40;99.90;;;;;;5057680;28;20609;-71
2022/07/12 07:38:43;;;;;;;1999.90;999.90;;;20.20;99.90;;;;;;5052364;28;20458;-73
2022/07/12 07:41:10;;;;;;;1999.90;999.90;;;20.60;99.90;;;;;;5053536;28;20711;-74
2022/07/12 07:43:36;;;;;;;1999.90;999.90;;;20.90;99.90;;;;;;5050305;28;20479;-73
2022/07/12 07:46:03;;;;;;;1999.90;999.90;;;20.70;99.90;;;;;;5047460;28;20496;-73
2022/07/12 07:48:30;;;;;;;1999.90;999.90;;;20.90;99.90;;;;;;5053227;28;20531;-73
2022/07/12 07:50:56;;;;;;;1999.90;999.90;;;21.30;99.90;;;;;;5050527;28;20546;-73
2022/07/12 07:53:25;;;;;;;1999.90;999.90;;;21.50;99.90;;;;;;5051544;28;20935;-73
2022/07/12 07:55:53;;;;;;;1999.90;999.90;;;21.50;99.90;;;;;;5052355;28;20459;-72
2022/07/12 07:58:21;;;;;;;1999.90;999.90;;;21.40;99.90;;;;;;5051772;28;20498;-72
2022/07/12 08:00:49;;;;;;;1999.90;999.90;;;21.30;99.90;;;;;;5048597;28;20557;-72
2022/07/12 08:03:16;;;;;;;1999.90;999.90;;;21.50;99.90;;;;;;5050213;28;20528;-72
2022/07/12 08:05:43;;;;;;;1999.90;999.90;;;21.30;99.90;;;;;;5052195;28;20458;-73
2022/07/12 08:08:09;;;;;;;1999.90;999.90;;;21.20;99.90;;;;;;5061059;28;20896;-72
2022/07/12 08:10:36;;;;;;;1999.90;999.90;;;21.20;99.90;;;;;;5049895;28;20458;-73
2022/07/12 08:13:04;;;;;;;1999.90;999.90;;;21.50;99.90;;;;;;5051440;28;20523;-72
2022/07/12 08:15:31;;;;;;;1999.90;999.90;;;21.70;99.90;;;;;;5054015;28;20462;-72
2022/07/12 08:17:58;;;;;;;1999.90;999.90;;;21.60;99.90;;;;;;5049475;28;20538;-72
2022/07/12 08:20:25;;;;;;;1999.90;999.90;;;21.60;99.90;;;;;;5048429;28;20466;-72
2022/07/12 08:22:52;;;;;;;1999.90;999.90;;;21.70;99.90;;;;;;5050589;28;20466;-72
2022/07/12 08:25:18;;;;;;;1999.90;999.90;;;21.70;99.90;;;;;;5053157;28;20458;-69
2022/07/12 08:27:45;;;;;;;1999.90;999.90;;;21.80;99.90;;;;;;5054524;28;20474;-72
2022/07/12 08:30:13;;;;;;;1999.90;999.90;;;22.40;99.90;;;;;;5049707;28;20847;-72
2022/07/12 08:32:44;;;;;;;1999.90;999.90;;;22.80;99.90;;;;;;5048244;28;21197;-73
2022/07/12 08:35:11;;;;;;;1999.90;999.90;;;23.00;99.90;;;;;;5050062;28;20482;-72
2022/07/12 08:37:37;;;;;;;1999.90;999.90;;;22.60;99.90;;;;;;5057349;28;20461;-71
2022/07/12 08:40:05;;;;;;;1999.90;999.90;;;22.50;99.90;;;;;;5056087;28;20466;-72
2022/07/12 08:42:32;;;;;;;1999.90;999.90;;;22.50;99.90;;;;;;5052025;28;21108;-73
2022/07/12 08:44:59;;;;;;;1999.90;999.90;;;22.30;99.90;;;;;;5057128;28;21074;-72
2022/07/12 08:47:27;;;;;;;1999.90;999.90;;;22.40;99.90;;;;;;5066136;28;20466;-72
2022/07/12 08:50:13;;;;;;;1999.90;999.90;;;22.50;99.90;;;;;;5056615;28;20542;-72
2022/07/12 08:52:42;;;;;;;1999.90;999.90;;;22.60;99.90;;;;;;5046804;28;20504;-72
2022/07/12 08:55:20;;;;;;;1999.90;999.90;;;22.60;99.90;;;;;;5050729;28;21537;-72
2022/07/12 08:57:47;;;;;;;1999.90;999.90;;;22.50;99.90;;;;;;5053602;28;20500;-72
2022/07/12 09:00:14;;;;;;;1999.90;999.90;;;22.70;99.90;;;;;;5050982;28;21019;-72
2022/07/12 09:02:53;;;;;;;1999.90;999.90;;;22.90;99.90;;;;;;5051794;28;20480;-72
2022/07/12 09:05:21;;;;;;;1999.90;999.90;;;23.10;99.90;;;;;;5052168;28;20797;-72
2022/07/12 09:07:49;;;;;;;1999.90;999.90;;;23.10;99.90;;;;;;5052068;28;20473;-72
2022/07/12 09:10:16;;;;;;;1999.90;999.90;;;23.10;99.90;;;;;;5050105;28;20501;-72
2022/07/12 09:12:43;;;;;;;1999.90;999.90;;;23.10;99.90;;;;;;5051464;28;20450;-72
2022/07/12 09:15:15;;;;;;;1999.90;999.90;;;23.10;99.90;;;;;;5051120;28;20926;-72
2022/07/12 09:17:46;;;;;;;1999.90;999.90;;;22.80;99.90;;;;;;5050321;28;20515;-71
2022/07/12 09:20:16;;;;;;;1999.90;999.90;;;23.30;99.90;;;;;;5047965;28;20481;-71
2022/07/12 09:22:52;;;;;;;1999.90;999.90;;;23.50;99.90;;;;;;5061973;28;20441;-72
2022/07/12 09:25:18;;;;;;;1999.90;999.90;;;23.90;99.90;;;;;;5067911;28;20952;-72
2022/07/12 09:27:52;;;;;;;1999.90;999.90;;;24.00;99.60;;;;;;5046806;28;20486;-72
2022/07/12 09:30:19;;;;;;;1999.90;999.90;;;23.70;99.90;;;;;;5049608;28;20489;-72
2022/07/12 09:36:09;;;;;;;1999.90;999.90;;;23.90;99.90;;;;;;5050110;28;20440;-72
2022/07/12 09:38:36;;;;;;;1999.90;999.90;;;23.70;99.90;;;;;;5054409;28;20500;-72
2022/07/12 09:41:03;;;;;;;1999.90;999.90;;;23.70;99.90;;;;;;5051419;28;20458;-72
2022/07/12 09:43:31;;;;;;;1999.90;999.90;;;23.30;99.90;;;;;;5051335;28;20516;-72
2022/07/12 09:45:58;;;;;;;1999.90;999.90;;;23.40;99.90;;;;;;5051550;28;21012;-72
2022/07/12 09:48:27;;;;;;;1999.90;999.90;;;23.60;99.90;;;;;;5048812;28;20540;-71
2022/07/12 09:50:58;;;;;;;1999.90;999.90;;;23.60;99.90;;;;;;5047464;28;20470;-70
2022/07/12 09:53:31;;;;;;;1999.90;999.90;;;23.70;99.90;;;;;;5050027;28;20477;-72
2022/07/12 09:55:58;;;;;;;1999.90;999.90;;;23.80;99.90;;;;;;5047407;28;20472;-72
2022/07/12 09:58:28;;;;;;;1999.90;999.90;;;24.10;99.90;;;;;;5050283;28;20458;-72
2022/07/12 10:00:56;;;;;;;1999.90;999.90;;;24.30;99.90;;;;;;5055427;28;20496;-71
2022/07/12 10:03:24;;;;;;;1999.90;999.90;;;24.40;99.20;;;;;;5055984;28;20535;-71
2022/07/12 10:05:52;;;;;;;1999.90;999.90;;;24.30;99.50;;;;;;5051654;28;20470;-72
2022/07/12 10:08:21;;;;;;;1999.90;999.90;;;24.50;99.90;;;;;;5048603;28;20494;-72
2022/07/12 10:10:48;;;;;;;1999.90;999.90;;;24.80;99.10;;;;;;5052388;28;20492;-71
2022/07/12 10:13:16;;;;;;;1999.90;999.90;;;24.90;98.70;;;;;;5047639;28;20486;-73
2022/07/12 10:15:44;;;;;;;1999.90;999.90;;;25.20;98.30;;;;;;5047914;28;20462;-72
2022/07/12 10:18:17;;;;;;;1999.90;999.90;;;24.90;98.10;;;;;;5052311;28;20469;-72
2022/07/12 10:20:44;;;;;;;1999.90;999.90;;;24.90;97.90;;;;;;5049197;28;20463;-71
2022/07/12 10:23:36;;;;;;;1999.90;999.90;;;25.10;98.40;;;;;;5047654;28;21080;-72
2022/07/12 10:26:24;;;;;;;1999.90;999.90;;;25.30;96.80;;;;;;5050663;28;20529;-71
2022/07/12 10:29:01;;;;;;;1999.90;999.90;;;25.60;97.10;;;;;;5058067;28;21052;-74
2022/07/12 10:31:31;;;;;;;1999.90;999.90;;;25.60;96.70;;;;;;5056821;28;20449;-70
2022/07/12 10:34:11;;;;;;;1999.90;999.90;;;25.50;96.50;;;;;;5051333;28;20563;-71
2022/07/12 10:37:21;;;;;;;1999.90;999.90;;;25.40;96.10;;;;;;5047704;28;20513;-72
2022/07/12 10:40:16;;;;;;;1999.90;999.90;;;25.40;96.50;;;;;;5049108;28;20966;-73
2022/07/12 10:43:14;;;;;;;1999.90;999.90;;;25.70;95.60;;;;;;5051615;28;20457;-73
2022/07/12 10:45:42;;;;;;;1999.90;999.90;;;25.60;95.60;;;;;;5047436;28;20458;-73
2022/07/12 10:48:19;;;;;;;1999.90;999.90;;;25.50;96.10;;;;;;5054041;28;20852;-74
2022/07/12 10:50:56;;;;;;;1999.90;999.90;;;25.40;95.90;;;;;;5053716;28;20476;-73
2022/07/12 10:53:34;;;;;;;1999.90;999.90;;;25.30;96.50;;;;;;5051998;28;20907;-74
2022/07/12 10:56:19;;;;;;;1999.90;999.90;;;25.10;95.50;;;;;;5052546;28;20462;-71
2022/07/12 10:58:49;;;;;;;1999.90;999.90;;;25.00;96.90;;;;;;5051416;28;20477;-72
2022/07/12 11:01:17;;;;;;;1999.90;999.90;;;25.10;96.70;;;;;;5054615;28;20551;-71
2022/07/12 11:03:45;;;;;;;1999.90;999.90;;;25.00;95.30;;;;;;5052003;28;20532;-72
2022/07/12 11:06:14;;;;;;;1999.90;999.90;;;24.90;95.20;;;;;;5053866;28;20991;-72
2022/07/12 11:08:51;;;;;;;1999.90;999.90;;;25.10;95.90;;;;;;5055345;28;20546;-74
2022/07/12 11:11:21;;;;;;;1999.90;999.90;;;25.30;95.40;;;;;;5053320;28;20462;-74
2022/07/12 11:13:47;;;;;;;1999.90;999.90;;;25.50;96.00;;;;;;5051096;28;20522;-75
2022/07/12 11:16:14;;;;;;;1999.90;999.90;;;25.70;94.60;;;;;;5064624;22;20552;-75
2022/07/12 11:18:41;;;;;;;1999.90;999.90;;;25.80;93.60;;;;;;5050555;28;20462;-75
2022/07/12 11:21:07;;;;;;;1999.90;999.90;;;25.80;92.30;;;;;;5048439;28;20466;-75
2022/07/12 11:23:34;;;;;;;1999.90;999.90;;;25.70;91.70;;;;;;5046572;28;21020;-75
2022/07/12 11:26:02;;;;;;;1999.90;999.90;;;25.60;93.30;;;;;;5047176;28;20504;-74
2022/07/12 11:28:32;;;;;;;1999.90;999.90;;;26.10;92.90;;;;;;5049570;28;20482;-76
2022/07/12 11:31:06;;;;;;;1999.90;999.90;;;26.20;92.30;;;;;;5048232;28;20462;-75
2022/07/12 11:33:34;;;;;;;1999.90;999.90;;;26.20;90.80;;;;;;5046615;28;20462;-75
2022/07/12 11:36:04;;;;;;;1999.90;999.90;;;26.30;87.50;;;;;;5045927;28;20478;-76
2022/07/12 11:38:31;;;;;;;1999.90;999.90;;;26.30;88.20;;;;;;5049339;28;20939;-74
2022/07/12 11:40:59;;;;;;;1999.90;999.90;;;26.30;89.40;;;;;;5050849;28;20473;-76
2022/07/12 11:43:26;;;;;;;1999.90;999.90;;;26.40;90.90;;;;;;5053435;28;20450;-75
2022/07/12 11:45:55;;;;;;;1999.90;999.90;;;26.60;90.00;;;;;;5050970;28;20489;-76
2022/07/12 11:48:22;;;;;;;1999.90;999.90;;;26.70;90.10;;;;;;5044890;28;20978;-76
2022/07/12 11:50:51;;;;;;;1999.90;999.90;;;26.90;89.40;;;;;;5047047;28;20466;-75
2022/07/12 11:53:18;;;;;;;1999.90;999.90;;;26.80;80.70;;;;;;5046750;28;20523;-75
2022/07/12 11:55:46;;;;;;;1999.90;999.90;;;26.90;82.50;;;;;;5045063;28;20565;-75
2022/07/12 11:58:13;;;;;;;1999.90;999.90;;;26.50;83.50;;;;;;5048824;28;20466;-76
2022/07/12 12:00:40;;;;;;;1999.90;999.90;;;26.70;85.30;;;;;;5047303;28;20474;-76
2022/07/12 12:03:09;;;;;;;1999.90;999.90;;;26.70;83.70;;;;;;5050017;28;20541;-76
2022/07/12 12:05:36;;;;;;;1999.90;999.90;;;26.90;80.50;;;;;;5047862;28;20518;-74
2022/07/12 12:08:04;;;;;;;1999.90;999.90;;;26.90;81.60;;;;;;5050458;28;20490;-72
2022/07/12 12:10:31;;;;;;;1999.90;999.90;;;27.10;81.30;;;;;;5049445;28;20482;-74